Time;durP1;ratioP1;P1;durP2;ratioP2;P2;SDS_P1;SDS_P2;PMS_P1;PMS_P2;Temp;Humidity;BMP_temperature;BMP_pressure;BME280_temperature;BME280_humidity;BME280_pressure;Samples;Min_cycle;Max_cycle;Signal;HPM_P1;HPM_P2
2022/11/02 00:01:29;;;;;;;193.00;76.07;;;7.90;99.90;;;;;;5137512;27;20248;-51
2022/11/02 00:03:57;;;;;;;165.03;48.83;;;7.90;99.90;;;;;;5149870;27;20203;-50
2022/11/02 00:06:26;;;;;;;40.37;22.43;;;7.90;99.90;;;;;;5150989;27;20231;-51
2022/11/02 00:08:54;;;;;;;170.13;72.20;;;7.90;99.90;;;;;;5151120;27;20290;-50
2022/11/02 00:11:23;;;;;;;100.03;43.93;;;7.90;99.90;;;;;;5144153;27;20242;-51
2022/11/02 00:13:51;;;;;;;56.03;24.80;;;7.90;99.90;;;;;;5147984;27;20245;-51
2022/11/02 00:16:22;;;;;;;68.30;28.40;;;7.90;99.90;;;;;;5150469;27;20225;-51
2022/11/02 00:18:55;;;;;;;50.97;29.27;;;7.90;99.90;;;;;;5149719;27;20210;-51
2022/11/02 00:21:25;;;;;;;261.90;85.97;;;7.80;99.90;;;;;;5142654;27;20242;-51
2022/11/02 00:23:54;;;;;;;50.53;23.30;;;7.80;99.90;;;;;;5146254;27;20238;-51
2022/11/02 00:26:24;;;;;;;59.47;22.17;;;7.80;99.90;;;;;;5139124;27;20695;-51
2022/11/02 00:28:53;;;;;;;62.90;27.57;;;7.80;99.90;;;;;;5137184;27;20302;-51
2022/11/02 00:31:21;;;;;;;61.60;21.87;;;7.80;99.90;;;;;;5150825;27;20234;-51
2022/11/02 00:33:49;;;;;;;50.33;22.07;;;7.70;99.90;;;;;;5148516;27;20225;-51
2022/11/02 00:36:17;;;;;;;66.90;21.97;;;7.80;99.90;;;;;;5150544;27;20281;-51
2022/11/02 00:38:45;;;;;;;60.87;20.40;;;7.70;99.90;;;;;;5143369;27;20233;-50
2022/11/02 00:41:13;;;;;;;71.77;19.30;;;7.70;99.90;;;;;;5150534;27;20198;-51
2022/11/02 00:43:43;;;;;;;93.23;27.23;;;7.70;99.90;;;;;;5149676;27;20202;-51
2022/11/02 00:46:11;;;;;;;186.87;45.50;;;7.70;99.90;;;;;;5142816;27;20276;-50
2022/11/02 00:48:39;;;;;;;63.97;22.80;;;7.70;99.90;;;;;;5140624;27;20211;-51
2022/11/02 00:51:07;;;;;;;61.30;18.90;;;7.70;99.90;;;;;;5146362;27;20234;-51
2022/11/02 00:53:35;;;;;;;179.47;56.23;;;7.70;99.90;;;;;;5144534;27;20968;-51
2022/11/02 00:56:03;;;;;;;60.53;22.53;;;7.70;99.90;;;;;;5140500;27;20297;-52
2022/11/02 00:58:31;;;;;;;47.47;22.83;;;7.70;99.90;;;;;;5150267;27;20293;-50
2022/11/02 01:01:04;;;;;;;51.67;16.53;;;7.70;99.90;;;;;;5148477;27;20311;-51
2022/11/02 01:03:32;;;;;;;42.17;16.17;;;7.70;99.90;;;;;;5150245;27;20210;-51
2022/11/02 01:06:08;;;;;;;46.90;16.97;;;7.70;99.90;;;;;;5151188;27;20244;-51
2022/11/02 01:08:36;;;;;;;136.13;41.93;;;7.70;99.90;;;;;;5129671;27;20241;-51
2022/11/02 01:11:12;;;;;;;129.00;45.87;;;7.80;99.90;;;;;;5131736;27;20257;-51
2022/11/02 01:13:40;;;;;;;41.20;14.43;;;7.80;99.90;;;;;;5132106;27;20212;-53
2022/11/02 01:16:11;;;;;;;1135.50;208.63;;;7.90;99.90;;;;;;5132451;27;20238;-50
2022/11/02 01:18:40;;;;;;;71.63;23.20;;;7.90;99.90;;;;;;5132837;27;20238;-51
2022/11/02 01:21:08;;;;;;;238.13;58.77;;;7.90;99.90;;;;;;5130494;27;20647;-51
2022/11/02 01:23:37;;;;;;;195.00;53.23;;;7.90;99.90;;;;;;5129287;27;20650;-51
2022/11/02 01:26:06;;;;;;;270.47;62.17;;;8.00;99.90;;;;;;5132616;27;20333;-51
2022/11/02 01:28:35;;;;;;;147.37;47.27;;;8.00;99.90;;;;;;5120931;27;20214;-51
2022/11/02 01:31:04;;;;;;;295.47;66.93;;;8.00;99.90;;;;;;5128406;27;20305;-51
2022/11/02 01:33:34;;;;;;;85.77;27.93;;;8.10;99.90;;;;;;5132534;27;20203;-51
2022/11/02 01:36:03;;;;;;;172.20;66.57;;;8.10;99.90;;;;;;5130939;27;20698;-51
2022/11/02 01:38:33;;;;;;;58.00;23.63;;;8.10;99.90;;;;;;5131900;27;20203;-51
2022/11/02 01:41:01;;;;;;;188.63;64.33;;;8.10;99.90;;;;;;5131290;27;20302;-51
2022/11/02 01:43:31;;;;;;;165.17;50.83;;;8.10;99.90;;;;;;5131447;27;20256;-50
2022/11/02 01:46:03;;;;;;;63.67;27.17;;;8.10;99.90;;;;;;5132266;27;20253;-51
2022/11/02 01:48:36;;;;;;;295.93;98.43;;;8.10;99.90;;;;;;5132005;27;20886;-51
2022/11/02 01:51:09;;;;;;;61.83;23.07;;;8.10;99.90;;;;;;5131742;27;20261;-51
2022/11/02 01:53:42;;;;;;;148.03;50.23;;;8.20;99.90;;;;;;5132218;27;20306;-51
2022/11/02 01:56:12;;;;;;;96.07;46.37;;;8.20;99.90;;;;;;5141662;27;20256;-50
2022/11/02 01:58:41;;;;;;;321.43;87.77;;;8.20;99.90;;;;;;5131715;27;20234;-51
2022/11/02 02:01:10;;;;;;;426.87;129.30;;;8.20;99.90;;;;;;5132334;27;20242;-51
2022/11/02 02:03:41;;;;;;;325.00;96.83;;;8.20;99.90;;;;;;5131609;27;20232;-51
2022/11/02 02:06:13;;;;;;;464.50;101.27;;;8.30;99.90;;;;;;5132079;27;20237;-51
2022/11/02 02:08:45;;;;;;;107.73;38.57;;;8.30;99.90;;;;;;5132061;27;20294;-51
2022/11/02 02:11:26;;;;;;;194.17;60.40;;;8.20;99.90;;;;;;5132192;27;20233;-51
2022/11/02 02:13:57;;;;;;;775.37;193.23;;;8.30;99.90;;;;;;5117505;27;20237;-51
2022/11/02 02:16:37;;;;;;;708.53;102.20;;;8.30;99.90;;;;;;5131735;27;20682;-51
2022/11/02 02:19:15;;;;;;;147.53;46.63;;;8.40;99.90;;;;;;5130117;27;20225;-51
2022/11/02 02:21:52;;;;;;;868.43;130.23;;;8.40;99.90;;;;;;5125913;27;20672;-51
2022/11/02 02:24:37;;;;;;;1278.97;229.33;;;8.40;99.90;;;;;;5132422;27;20203;-51
2022/11/02 02:27:14;;;;;;;373.47;88.23;;;8.40;99.90;;;;;;5131567;27;20211;-51
2022/11/02 02:30:01;;;;;;;1999.90;307.43;;;8.50;99.90;;;;;;5120411;27;20261;-51
2022/11/02 02:32:38;;;;;;;1398.90;200.63;;;8.50;99.90;;;;;;5116970;27;20231;-51
2022/11/02 02:35:15;;;;;;;616.90;121.27;;;8.50;99.90;;;;;;5131916;27;20293;-51
2022/11/02 02:37:51;;;;;;;1001.50;213.17;;;8.50;99.90;;;;;;5118733;27;20230;-51
2022/11/02 02:40:22;;;;;;;1762.57;308.70;;;8.60;99.90;;;;;;5131156;27;20223;-50
2022/11/02 02:42:56;;;;;;;807.83;152.73;;;8.60;99.90;;;;;;5130147;27;20247;-51
2022/11/02 02:45:33;;;;;;;1146.97;246.60;;;8.50;99.90;;;;;;5130111;27;20203;-51
2022/11/02 02:48:06;;;;;;;586.00;131.80;;;8.50;99.90;;;;;;5130085;27;20216;-51
2022/11/02 02:50:39;;;;;;;684.57;124.13;;;8.60;99.90;;;;;;5130612;27;20223;-50
2022/11/02 02:53:08;;;;;;;642.33;144.03;;;8.60;99.90;;;;;;5130148;27;20293;-50
2022/11/02 02:55:41;;;;;;;617.53;126.73;;;8.60;99.90;;;;;;5131025;27;20211;-50
2022/11/02 02:58:14;;;;;;;1999.90;331.27;;;8.60;99.90;;;;;;5130433;27;20198;-50
2022/11/02 03:00:44;;;;;;;1628.43;260.13;;;8.80;99.90;;;;;;5129497;27;20310;-51
2022/11/02 03:03:17;;;;;;;1645.33;369.63;;;8.80;99.90;;;;;;5129587;27;20209;-51
2022/11/02 03:06:01;;;;;;;581.03;144.50;;;8.80;99.90;;;;;;5130293;27;20209;-51
2022/11/02 03:08:31;;;;;;;1495.90;317.33;;;8.80;99.90;;;;;;5131283;27;20227;-51
2022/11/02 03:11:05;;;;;;;1145.00;220.77;;;8.90;99.90;;;;;;5130286;27;20250;-51
2022/11/02 03:13:44;;;;;;;617.37;138.70;;;8.90;99.90;;;;;;5119868;27;20245;-51
2022/11/02 03:16:30;;;;;;;404.57;106.20;;;9.00;99.90;;;;;;5134590;27;20231;-51
2022/11/02 03:19:05;;;;;;;442.80;127.73;;;9.00;99.90;;;;;;5129123;27;20288;-50
2022/11/02 03:21:39;;;;;;;338.83;71.53;;;9.00;99.90;;;;;;5124730;27;20228;-51
2022/11/02 03:24:14;;;;;;;1031.00;184.33;;;9.10;99.90;;;;;;5130242;27;20833;-50
2022/11/02 03:26:49;;;;;;;527.03;135.50;;;9.10;99.90;;;;;;5130290;27;20256;-50
2022/11/02 03:29:21;;;;;;;716.80;176.20;;;9.10;99.90;;;;;;5120926;27;20256;-51
2022/11/02 03:31:56;;;;;;;1887.17;347.10;;;9.10;99.90;;;;;;5130350;27;20231;-51
2022/11/02 03:34:28;;;;;;;1471.00;289.83;;;9.10;99.90;;;;;;5128043;27;20741;-51
2022/11/02 03:37:01;;;;;;;173.40;51.67;;;9.10;99.90;;;;;;5130529;27;20691;-51
2022/11/02 03:39:34;;;;;;;916.17;190.33;;;9.10;99.90;;;;;;5129607;27;20227;-50
2022/11/02 03:42:04;;;;;;;1455.63;290.73;;;9.10;99.90;;;;;;5129571;27;20296;-51
2022/11/02 03:44:38;;;;;;;994.10;190.53;;;9.10;99.90;;;;;;5130187;27;20238;-51
2022/11/02 03:47:11;;;;;;;534.77;121.07;;;9.10;99.90;;;;;;5129993;27;20199;-51
2022/11/02 03:49:40;;;;;;;1355.40;297.53;;;9.20;99.90;;;;;;5129629;27;20235;-51
2022/11/02 03:52:14;;;;;;;1194.50;245.33;;;9.20;99.90;;;;;;5130083;27;20298;-51
2022/11/02 03:54:47;;;;;;;487.57;119.97;;;9.20;99.90;;;;;;5129830;27;20234;-51
2022/11/02 03:57:21;;;;;;;638.87;191.90;;;9.20;99.90;;;;;;5130055;27;20241;-51
2022/11/02 03:59:49;;;;;;;1121.13;272.77;;;9.20;99.90;;;;;;5129160;27;20312;-50
2022/11/02 04:02:19;;;;;;;1142.60;263.10;;;9.20;99.90;;;;;;5127823;27;20202;-51
2022/11/02 04:04:49;;;;;;;620.40;179.87;;;9.30;99.90;;;;;;5126718;27;20210;-51
2022/11/02 04:07:21;;;;;;;374.97;110.83;;;9.30;99.90;;;;;;5129945;27;20208;-51
2022/11/02 04:09:50;;;;;;;335.47;93.47;;;9.20;99.90;;;;;;5129703;27;20673;-51
2022/11/02 04:15:04;;;;;;;477.00;138.33;;;9.20;99.90;;;;;;5129018;27;20213;-51
2022/11/02 04:20:19;;;;;;;366.23;106.37;;;9.20;99.90;;;;;;5128276;27;20234;-51
2022/11/02 04:25:33;;;;;;;392.53;93.93;;;9.10;99.90;;;;;;5129977;27;20633;-51
2022/11/02 04:28:07;;;;;;;447.73;143.73;;;9.10;99.90;;;;;;5122885;27;20735;-51
2022/11/02 04:30:36;;;;;;;466.10;95.83;;;9.10;99.90;;;;;;5127583;27;20301;-51
2022/11/02 04:35:50;;;;;;;241.33;71.20;;;9.10;99.90;;;;;;5128490;27;20676;-51
2022/11/02 04:43:50;;;;;;;198.73;66.17;;;8.90;99.90;;;;;;5133811;27;20234;-51
2022/11/02 04:46:19;;;;;;;102.83;37.40;;;8.80;99.90;;;;;;5133444;27;20724;-51
2022/11/02 04:48:48;;;;;;;339.63;90.43;;;8.80;99.90;;;;;;5132685;27;20254;-51
2022/11/02 04:51:17;;;;;;;65.80;26.27;;;8.80;99.90;;;;;;5133237;27;20264;-51
2022/11/02 04:53:45;;;;;;;270.67;86.57;;;8.80;99.90;;;;;;5126854;27;20211;-51
2022/11/02 04:56:14;;;;;;;146.63;50.90;;;8.70;99.90;;;;;;5133192;27;20209;-50
2022/11/02 04:58:42;;;;;;;127.33;32.87;;;8.60;99.90;;;;;;5133059;27;20306;-51
2022/11/02 05:01:15;;;;;;;110.07;26.37;;;8.60;99.90;;;;;;5132962;27;20691;-51
2022/11/02 05:03:46;;;;;;;165.57;49.37;;;8.60;99.90;;;;;;5131730;27;20195;-51
2022/11/02 05:06:16;;;;;;;149.47;60.20;;;8.60;99.90;;;;;;5132128;27;20234;-51
2022/11/02 05:08:44;;;;;;;155.93;53.77;;;8.60;99.90;;;;;;5132074;27;20310;-51
2022/11/02 05:11:13;;;;;;;93.73;30.57;;;8.60;99.90;;;;;;5131775;27;20199;-51
2022/11/02 05:13:43;;;;;;;258.37;85.20;;;8.50;99.90;;;;;;5132434;27;20212;-50
2022/11/02 05:16:14;;;;;;;1062.77;157.97;;;8.50;99.90;;;;;;5133169;27;20243;-50
2022/11/02 05:18:43;;;;;;;276.47;80.10;;;8.50;99.90;;;;;;5118317;27;20719;-51
2022/11/02 05:21:12;;;;;;;76.43;37.33;;;8.40;99.90;;;;;;5129761;27;20289;-51
2022/11/02 05:23:41;;;;;;;257.00;66.30;;;8.50;99.90;;;;;;5130587;27;20259;-51
2022/11/02 05:26:11;;;;;;;235.50;81.30;;;8.50;99.90;;;;;;5132885;27;20294;-51
2022/11/02 05:28:39;;;;;;;662.30;160.20;;;8.50;99.90;;;;;;5126001;27;20229;-51
2022/11/02 05:31:07;;;;;;;63.20;32.30;;;8.60;99.90;;;;;;5133418;27;20291;-51
2022/11/02 05:33:36;;;;;;;335.00;93.47;;;8.70;99.90;;;;;;5132789;27;20282;-51
2022/11/02 05:36:05;;;;;;;168.90;70.87;;;8.70;99.90;;;;;;5132948;27;20282;-51
2022/11/02 05:38:33;;;;;;;584.60;207.67;;;8.80;99.90;;;;;;5132770;27;20317;-51
2022/11/02 05:41:03;;;;;;;324.10;73.33;;;8.80;99.90;;;;;;5132808;27;20317;-51
2022/11/02 05:43:31;;;;;;;129.27;43.90;;;8.90;99.90;;;;;;5131578;27;20234;-51
2022/11/02 05:46:01;;;;;;;179.83;63.43;;;8.90;99.90;;;;;;5132794;27;20242;-50
2022/11/02 05:48:32;;;;;;;235.87;77.10;;;8.90;99.90;;;;;;5131863;27;20246;-51
2022/11/02 05:51:02;;;;;;;304.33;94.17;;;8.90;99.90;;;;;;5131682;27;20258;-51
2022/11/02 05:53:36;;;;;;;420.70;139.67;;;9.00;99.90;;;;;;5131400;27;20217;-51
2022/11/02 05:56:07;;;;;;;233.80;103.23;;;9.00;99.90;;;;;;5132344;27;20774;-51
2022/11/02 05:58:35;;;;;;;607.47;208.37;;;9.00;99.90;;;;;;5132377;27;20742;-51
2022/11/02 06:01:06;;;;;;;179.03;64.63;;;9.00;99.90;;;;;;5131816;27;20258;-50
2022/11/02 06:03:35;;;;;;;285.43;105.50;;;9.00;99.90;;;;;;5130966;27;20215;-51
2022/11/02 06:06:06;;;;;;;234.57;88.67;;;9.00;99.90;;;;;;5132343;27;20234;-51
2022/11/02 06:08:34;;;;;;;227.83;82.50;;;8.90;99.90;;;;;;5131719;27;20291;-51
2022/11/02 06:11:06;;;;;;;115.67;39.63;;;9.00;99.90;;;;;;5131224;27;20253;-51
2022/11/02 06:13:34;;;;;;;92.77;49.27;;;9.00;99.90;;;;;;5131110;27;20195;-51
2022/11/02 06:16:04;;;;;;;147.80;35.70;;;9.00;99.90;;;;;;5132107;27;20234;-51
2022/11/02 06:18:33;;;;;;;120.03;41.00;;;9.00;99.90;;;;;;5130810;27;20222;-51
2022/11/02 06:21:01;;;;;;;271.03;104.03;;;9.00;99.90;;;;;;5130316;27;20227;-51
2022/11/02 06:23:30;;;;;;;707.67;224.53;;;9.00;99.90;;;;;;5127606;27;20242;-51
2022/11/02 06:25:59;;;;;;;334.83;96.20;;;9.00;99.90;;;;;;5131955;27;20729;-51
2022/11/02 06:28:29;;;;;;;443.73;156.50;;;9.10;99.90;;;;;;5122074;27;20238;-51
2022/11/02 06:30:58;;;;;;;1286.83;537.57;;;9.10;99.90;;;;;;5130723;27;20223;-51
2022/11/02 06:33:26;;;;;;;215.00;55.00;;;9.10;99.90;;;;;;5130812;27;20289;-51
2022/11/02 06:35:54;;;;;;;160.43;61.57;;;9.10;99.90;;;;;;5130821;27;20292;-51
2022/11/02 06:38:23;;;;;;;226.13;81.37;;;9.10;99.90;;;;;;5131934;27;20289;-51
2022/11/02 06:40:55;;;;;;;358.07;104.43;;;9.10;99.90;;;;;;5131493;27;20243;-52
2022/11/02 06:43:24;;;;;;;179.60;55.63;;;9.10;99.90;;;;;;5131671;27;20207;-51
2022/11/02 06:45:56;;;;;;;269.83;76.83;;;9.10;99.90;;;;;;5131795;27;20282;-51
2022/11/02 06:48:25;;;;;;;1140.97;231.13;;;9.20;99.90;;;;;;5131445;27;20198;-51
2022/11/02 06:51:01;;;;;;;626.93;184.07;;;9.20;99.90;;;;;;5125130;27;20229;-50
2022/11/02 06:53:29;;;;;;;825.47;214.30;;;9.20;99.90;;;;;;5133094;27;20214;-51
2022/11/02 06:55:59;;;;;;;692.67;161.23;;;9.30;99.90;;;;;;5133491;27;20207;-50
2022/11/02 06:58:27;;;;;;;847.27;257.90;;;9.40;99.90;;;;;;5130756;27;20239;-51
2022/11/02 07:01:02;;;;;;;536.73;127.13;;;9.40;99.90;;;;;;5129333;27;20279;-51
2022/11/02 07:03:30;;;;;;;422.90;132.37;;;9.40;99.90;;;;;;5130668;27;20286;-51
2022/11/02 07:05:59;;;;;;;1999.90;448.27;;;9.40;99.90;;;;;;5130982;27;20298;-51
2022/11/02 07:08:28;;;;;;;480.40;121.90;;;9.50;99.90;;;;;;5130855;27;20207;-51
2022/11/02 07:10:56;;;;;;;715.53;214.50;;;9.50;99.90;;;;;;5121730;27;20227;-51
2022/11/02 07:13:25;;;;;;;628.50;174.43;;;9.50;99.90;;;;;;5125669;27;20683;-51
2022/11/02 07:15:53;;;;;;;1619.47;555.67;;;9.60;99.90;;;;;;5130216;27;20245;-50
2022/11/02 07:18:23;;;;;;;1243.27;229.33;;;9.60;99.90;;;;;;5129932;27;20247;-50
2022/11/02 07:20:51;;;;;;;1073.20;318.93;;;9.60;99.90;;;;;;5129225;27;20307;-50
2022/11/02 07:23:22;;;;;;;522.60;126.37;;;9.60;99.90;;;;;;5124519;27;20259;-51
2022/11/02 07:25:51;;;;;;;680.33;168.23;;;9.70;99.90;;;;;;5130329;27;20220;-50
2022/11/02 07:28:20;;;;;;;1093.87;294.57;;;9.70;99.90;;;;;;5121920;27;20710;-50
2022/11/02 07:30:48;;;;;;;762.40;208.47;;;9.80;99.90;;;;;;5129617;27;20262;-50
2022/11/02 07:33:17;;;;;;;1249.63;344.60;;;9.80;99.90;;;;;;5129631;27;20285;-51
2022/11/02 07:35:46;;;;;;;1522.70;497.97;;;9.80;99.90;;;;;;5129648;27;20608;-51
2022/11/02 07:38:14;;;;;;;830.93;202.27;;;9.90;99.90;;;;;;5130445;27;20315;-51
2022/11/02 07:40:42;;;;;;;699.00;192.07;;;9.90;99.90;;;;;;5129587;27;20221;-50
2022/11/02 07:43:11;;;;;;;1205.60;268.40;;;9.90;99.90;;;;;;5129858;27;20207;-50
2022/11/02 07:45:39;;;;;;;988.07;264.03;;;10.00;99.90;;;;;;5130296;27;20210;-50
2022/11/02 07:48:07;;;;;;;1452.80;325.60;;;10.00;99.90;;;;;;5129962;27;20282;-51
2022/11/02 07:50:35;;;;;;;1283.33;240.70;;;10.10;99.90;;;;;;5129181;27;20258;-50
2022/11/02 07:53:05;;;;;;;1144.90;283.43;;;10.00;99.90;;;;;;5129538;27;20199;-51
2022/11/02 07:55:33;;;;;;;1090.10;268.93;;;10.10;99.90;;;;;;5129959;27;20311;-50
2022/11/02 07:58:04;;;;;;;955.47;258.47;;;10.10;99.90;;;;;;5129601;27;20203;-50
2022/11/02 08:00:34;;;;;;;1490.00;298.93;;;10.10;99.90;;;;;;5129827;27;20253;-50
2022/11/02 08:03:03;;;;;;;1244.53;259.07;;;10.10;99.90;;;;;;5128955;27;20229;-51
2022/11/02 08:05:34;;;;;;;1999.90;651.33;;;10.20;99.90;;;;;;5130469;27;20203;-51
2022/11/02 08:08:05;;;;;;;697.33;121.00;;;10.20;99.90;;;;;;5129857;27;20261;-51
2022/11/02 08:10:36;;;;;;;1999.90;573.70;;;10.30;99.90;;;;;;5129209;27;20234;-50
2022/11/02 08:13:07;;;;;;;1432.07;339.70;;;10.40;99.90;;;;;;5129037;27;20696;-51
2022/11/02 08:15:36;;;;;;;1041.90;231.53;;;10.40;99.90;;;;;;5129739;27;20234;-50
2022/11/02 08:18:05;;;;;;;1981.00;401.57;;;10.50;99.90;;;;;;5129781;27;20226;-51
2022/11/02 08:20:35;;;;;;;1671.43;457.67;;;10.50;99.90;;;;;;5129048;28;20219;-51
2022/11/02 08:23:06;;;;;;;1962.97;460.23;;;10.60;99.90;;;;;;5129407;28;20238;-51
2022/11/02 08:25:35;;;;;;;1999.90;470.77;;;10.50;99.90;;;;;;5129813;27;20289;-50
2022/11/02 08:28:04;;;;;;;1872.60;468.77;;;10.60;99.90;;;;;;5122986;27;20755;-50
2022/11/02 08:30:33;;;;;;;1202.03;270.47;;;10.60;99.90;;;;;;5126652;27;20236;-51
2022/11/02 08:33:06;;;;;;;1397.67;388.67;;;10.60;99.90;;;;;;5128501;27;20627;-50
2022/11/02 08:35:36;;;;;;;1999.90;370.00;;;10.70;99.90;;;;;;5128987;27;20227;-51
2022/11/02 08:38:06;;;;;;;1476.50;378.70;;;10.70;99.90;;;;;;5129607;27;20207;-51
2022/11/02 08:40:36;;;;;;;982.77;217.23;;;10.80;99.90;;;;;;5128677;27;20235;-50
2022/11/02 08:43:06;;;;;;;1956.07;489.60;;;10.80;99.90;;;;;;5129372;27;20199;-50
2022/11/02 08:45:35;;;;;;;1604.97;534.20;;;10.90;99.90;;;;;;5129545;27;20209;-51
2022/11/02 08:48:23;;;;;;;1168.30;272.83;;;10.90;99.90;;;;;;5128460;27;20214;-50
2022/11/02 08:50:51;;;;;;;1631.07;466.67;;;11.00;99.90;;;;;;5129116;27;20227;-51
2022/11/02 08:53:21;;;;;;;1774.43;422.17;;;11.10;99.90;;;;;;5128808;27;20654;-51
2022/11/02 08:55:49;;;;;;;1568.87;454.33;;;11.10;99.90;;;;;;5129779;28;20202;-51
2022/11/02 08:58:17;;;;;;;1580.97;447.80;;;11.10;99.90;;;;;;5128979;27;20203;-51
2022/11/02 09:00:45;;;;;;;1878.37;479.63;;;11.20;99.90;;;;;;5128845;27;20246;-50
2022/11/02 09:03:15;;;;;;;722.97;161.83;;;11.20;99.90;;;;;;5128370;27;20310;-50
2022/11/02 09:05:49;;;;;;;941.43;289.30;;;11.20;99.90;;;;;;5129770;27;20242;-50
2022/11/02 09:08:18;;;;;;;1437.97;322.40;;;11.20;99.90;;;;;;5129203;28;20241;-51
2022/11/02 09:10:51;;;;;;;1026.50;211.10;;;11.30;99.90;;;;;;5128904;27;20252;-50
2022/11/02 09:13:24;;;;;;;1463.70;347.27;;;11.40;99.90;;;;;;5128789;27;20199;-51
2022/11/02 09:15:54;;;;;;;1202.27;344.90;;;11.40;99.90;;;;;;5129393;27;20230;-51
2022/11/02 09:18:22;;;;;;;1150.60;366.07;;;11.40;99.90;;;;;;5128999;27;20230;-50
2022/11/02 09:20:51;;;;;;;873.80;245.33;;;11.40;99.90;;;;;;5128502;27;20794;-50
2022/11/02 09:23:20;;;;;;;1700.17;339.80;;;11.40;99.90;;;;;;5123701;27;20215;-51
2022/11/02 09:25:50;;;;;;;1076.07;278.73;;;11.50;99.90;;;;;;5131687;27;20210;-50
2022/11/02 09:28:18;;;;;;;991.90;265.17;;;11.50;99.90;;;;;;5124414;27;20298;-50
2022/11/02 09:30:46;;;;;;;1600.20;455.63;;;11.50;99.90;;;;;;5117588;27;20317;-50
2022/11/02 09:33:15;;;;;;;1468.50;450.27;;;11.60;99.90;;;;;;5132673;27;20299;-50
2022/11/02 09:35:46;;;;;;;837.20;159.17;;;11.60;99.90;;;;;;5132843;27;20633;-50
2022/11/02 09:38:15;;;;;;;1613.10;545.60;;;11.80;99.90;;;;;;5133531;27;20652;-50
2022/11/02 09:40:46;;;;;;;1130.83;310.50;;;11.90;99.90;;;;;;5132942;27;20783;-50
2022/11/02 09:43:22;;;;;;;667.37;182.70;;;12.00;99.90;;;;;;5133413;27;20235;-50
2022/11/02 09:46:00;;;;;;;1667.50;484.47;;;12.10;99.90;;;;;;5133803;27;20202;-50
2022/11/02 09:48:31;;;;;;;583.67;176.83;;;12.10;99.90;;;;;;5133270;27;20788;-50
2022/11/02 09:51:05;;;;;;;873.60;259.60;;;12.20;99.90;;;;;;5132515;27;20856;-51
2022/11/02 09:53:42;;;;;;;1761.43;549.97;;;12.30;99.90;;;;;;5132183;27;20249;-50
2022/11/02 09:56:14;;;;;;;1661.33;512.47;;;12.30;99.90;;;;;;5132250;27;20287;-51
2022/11/02 09:58:47;;;;;;;1408.37;411.60;;;12.30;99.90;;;;;;5133418;27;20235;-50
2022/11/02 10:01:44;;;;;;;1999.90;804.73;;;12.30;99.90;;;;;;5132667;27;20739;-51
2022/11/02 10:04:36;;;;;;;1250.30;384.00;;;12.30;99.90;;;;;;5127547;27;20222;-51
2022/11/02 10:07:10;;;;;;;1999.90;786.80;;;12.20;99.90;;;;;;5129527;27;20203;-51
2022/11/02 10:09:47;;;;;;;1999.90;690.40;;;12.30;99.90;;;;;;5132147;27;20314;-51
2022/11/02 10:12:20;;;;;;;1999.90;638.93;;;12.20;99.90;;;;;;5131653;27;20228;-51
2022/11/02 10:14:59;;;;;;;1999.90;641.73;;;12.10;99.90;;;;;;5131494;27;20222;-51
2022/11/02 10:17:31;;;;;;;1999.90;474.50;;;12.10;99.90;;;;;;5131722;27;20206;-51
2022/11/02 10:20:04;;;;;;;1252.73;383.93;;;12.20;99.90;;;;;;5130148;27;20287;-50
2022/11/02 10:22:35;;;;;;;1999.90;761.40;;;12.30;99.90;;;;;;5125854;27;20234;-50
2022/11/02 10:25:06;;;;;;;1999.90;719.03;;;12.50;99.90;;;;;;5131841;27;20641;-51
2022/11/02 10:27:37;;;;;;;1709.20;497.53;;;12.60;99.90;;;;;;5129265;27;20233;-50
2022/11/02 10:30:13;;;;;;;1871.53;567.73;;;12.60;99.90;;;;;;5126292;27;20248;-50
2022/11/02 10:32:43;;;;;;;1999.90;733.33;;;12.80;99.90;;;;;;5130686;27;20658;-50
2022/11/02 10:35:19;;;;;;;1999.90;792.70;;;12.80;99.90;;;;;;5147082;27;20241;-51
2022/11/02 10:38:20;;;;;;;1999.90;872.00;;;12.70;99.90;;;;;;5151811;27;20202;-51
2022/11/02 10:41:18;;;;;;;1999.90;999.90;;;12.70;99.90;;;;;;5131820;27;20730;-51
2022/11/02 10:44:09;;;;;;;1999.90;907.47;;;13.00;99.90;;;;;;5130297;27;20297;-51
2022/11/02 10:46:55;;;;;;;1999.90;949.93;;;13.00;99.90;;;;;;5131670;27;20979;-51
2022/11/02 10:49:51;;;;;;;1999.90;999.90;;;13.00;99.90;;;;;;5132733;27;20714;-50
2022/11/02 10:52:19;;;;;;;1999.90;876.03;;;13.10;99.90;;;;;;5120019;27;20298;-50
2022/11/02 10:54:50;;;;;;;1999.90;999.90;;;13.10;99.90;;;;;;5134493;27;20275;-50
2022/11/02 10:57:22;;;;;;;1999.90;999.90;;;13.10;99.90;;;;;;5132334;27;20748;-51
2022/11/02 11:00:25;;;;;;;1999.90;805.80;;;13.10;99.90;;;;;;5131027;27;20288;-51
2022/11/02 11:03:07;;;;;;;1999.90;999.90;;;13.10;99.90;;;;;;5130575;27;20585;-51
2022/11/02 11:05:37;;;;;;;1999.90;975.97;;;13.10;99.90;;;;;;5131110;27;20245;-51
2022/11/02 11:08:06;;;;;;;1999.90;932.77;;;13.20;99.90;;;;;;5131018;27;20209;-51
2022/11/02 11:10:38;;;;;;;1999.90;927.03;;;13.20;99.90;;;;;;5130679;27;20314;-51
2022/11/02 11:13:07;;;;;;;1999.90;856.77;;;13.20;99.90;;;;;;5130707;27;20219;-51
2022/11/02 11:15:55;;;;;;;1999.90;808.23;;;13.10;99.90;;;;;;5125016;27;20222;-51
2022/11/02 11:18:25;;;;;;;1999.90;726.40;;;13.10;99.90;;;;;;5129744;27;20297;-51
2022/11/02 11:21:13;;;;;;;1999.90;858.13;;;13.10;99.90;;;;;;5127133;27;20208;-51
2022/11/02 11:23:41;;;;;;;1999.90;721.10;;;13.00;99.90;;;;;;5127385;27;20302;-50
2022/11/02 11:26:27;;;;;;;1999.90;790.97;;;13.00;99.90;;;;;;5130316;27;20744;-51
2022/11/02 11:28:56;;;;;;;1810.17;512.50;;;12.90;99.90;;;;;;5120950;27;20249;-51
2022/11/02 11:31:25;;;;;;;1999.90;745.20;;;12.90;99.90;;;;;;5129518;27;20282;-51
2022/11/02 11:33:57;;;;;;;1999.90;703.70;;;12.80;99.90;;;;;;5128056;27;20308;-51
2022/11/02 11:36:29;;;;;;;1999.90;823.70;;;12.70;99.90;;;;;;5130907;27;20209;-51
2022/11/02 11:39:00;;;;;;;1999.90;653.77;;;12.60;99.90;;;;;;5128922;27;20918;-51
2022/11/02 11:41:28;;;;;;;1771.37;581.20;;;12.50;99.90;;;;;;5130564;27;20234;-51
2022/11/02 11:43:57;;;;;;;1999.90;662.30;;;12.50;99.90;;;;;;5129312;27;20209;-51
2022/11/02 11:46:40;;;;;;;1989.30;627.17;;;12.50;99.90;;;;;;5130380;27;20207;-51
2022/11/02 11:49:20;;;;;;;1999.90;811.73;;;12.60;99.90;;;;;;5129331;27;20234;-51
2022/11/02 11:52:03;;;;;;;1999.90;765.37;;;12.80;99.90;;;;;;5129898;27;20254;-51
2022/11/02 11:54:32;;;;;;;1999.90;782.67;;;13.00;99.90;;;;;;5129310;27;20322;-51
2022/11/02 11:57:22;;;;;;;1999.90;881.60;;;13.10;99.90;;;;;;5129718;27;20211;-51
2022/11/02 11:59:51;;;;;;;1999.90;999.90;;;13.20;99.90;;;;;;5117854;27;20255;-51
2022/11/02 12:02:23;;;;;;;1999.90;874.50;;;13.30;99.90;;;;;;5128685;27;20195;-51
2022/11/02 12:04:59;;;;;;;1999.90;999.90;;;13.50;99.90;;;;;;5116734;27;20207;-51
2022/11/02 12:08:00;;;;;;;1999.90;986.40;;;13.70;99.90;;;;;;5129463;27;20618;-51
2022/11/02 12:10:47;;;;;;;1999.90;999.90;;;13.70;99.90;;;;;;5129591;27;20636;-50
2022/11/02 12:13:40;;;;;;;1999.90;999.90;;;13.70;99.90;;;;;;5129250;27;20264;-50
2022/11/02 12:16:17;;;;;;;1999.90;880.17;;;13.70;99.90;;;;;;5129883;27;21000;-51
2022/11/02 12:18:59;;;;;;;1999.90;999.90;;;13.60;99.90;;;;;;5129198;27;20259;-51
2022/11/02 12:21:50;;;;;;;1999.90;999.90;;;13.50;99.90;;;;;;5129003;27;20671;-51
2022/11/02 12:24:46;;;;;;;1999.90;999.90;;;13.50;99.90;;;;;;5127631;27;20241;-50
2022/11/02 12:27:26;;;;;;;1999.90;999.90;;;13.50;99.90;;;;;;5129490;27;20241;-51
2022/11/02 12:30:11;;;;;;;1999.90;999.90;;;13.50;99.90;;;;;;5122147;28;20765;-50
2022/11/02 12:32:50;;;;;;;1999.90;999.90;;;13.40;99.90;;;;;;5116318;28;20221;-50
2022/11/02 12:35:28;;;;;;;1999.90;999.90;;;13.40;99.90;;;;;;5128253;27;20750;-51
2022/11/02 12:38:13;;;;;;;1999.90;999.90;;;13.40;99.90;;;;;;5129814;27;20291;-51
2022/11/02 12:40:54;;;;;;;1999.90;999.90;;;13.40;99.90;;;;;;5129036;27;20705;-51
2022/11/02 12:43:35;;;;;;;1999.90;999.90;;;13.40;99.90;;;;;;5129361;28;20675;-51
2022/11/02 12:46:09;;;;;;;1999.90;999.90;;;13.40;99.90;;;;;;5129365;27;20286;-51
2022/11/02 12:48:47;;;;;;;1999.90;999.90;;;13.40;99.90;;;;;;5125128;27;20298;-51
2022/11/02 12:51:19;;;;;;;1999.90;924.03;;;13.40;99.90;;;;;;5115884;28;20638;-51
2022/11/02 12:53:53;;;;;;;1999.90;999.90;;;13.40;99.90;;;;;;5128616;27;20257;-51
2022/11/02 12:56:25;;;;;;;1999.90;999.90;;;13.40;99.90;;;;;;5115656;28;20235;-51